Time;durP1;ratioP1;P1;durP2;ratioP2;P2;SDS_P1;SDS_P2;PMS_P1;PMS_P2;Temp;Humidity;BMP_temperature;BMP_pressure;BME280_temperature;BME280_humidity;BME280_pressure;Samples;Min_cycle;Max_cycle;Signal;HPM_P1;HPM_P2
2023/10/23 00:01:04;;;;;;;0.00;0.00;;;;;;;14.05;64.38;100009.19;7363701;19;20014;-58
2023/10/23 00:03:29;;;;;;;0.10;0.10;;;;;;;14.07;64.97;100014.34;7356436;19;20014;-59
2023/10/23 00:05:54;;;;;;;0.10;0.10;;;;;;;14.08;65.20;100009.00;7359567;19;20489;-59
2023/10/23 00:08:20;;;;;;;0.10;0.10;;;;;;;14.10;65.14;100012.44;7369616;19;20006;-59
2023/10/23 00:10:45;;;;;;;0.00;0.00;;;;;;;14.11;65.42;100003.63;7358848;19;20015;-58
2023/10/23 00:13:11;;;;;;;0.10;0.10;;;;;;;14.13;65.60;100004.38;7358995;19;20490;-59
2023/10/23 00:15:37;;;;;;;0.10;0.10;;;;;;;14.16;65.70;100000.78;7360528;19;20362;-60
2023/10/23 00:18:02;;;;;;;0.10;0.10;;;;;;;14.18;65.63;100014.69;7357837;19;20026;-59
2023/10/23 00:20:28;;;;;;;0.00;0.00;;;;;;;14.16;65.78;99995.53;7362396;19;20014;-59
2023/10/23 00:22:53;;;;;;;0.10;0.10;;;;;;;14.21;65.50;99999.63;7362346;19;20007;-58
2023/10/23 00:25:19;;;;;;;0.00;0.00;;;;;;;14.25;65.48;99998.56;7355641;19;20022;-59
2023/10/23 00:27:44;;;;;;;0.10;0.10;;;;;;;14.26;65.45;99987.13;7361680;19;20355;-59
2023/10/23 00:30:10;;;;;;;0.10;0.10;;;;;;;14.30;65.58;99993.09;7349362;19;20036;-60
2023/10/23 00:32:35;;;;;;;0.10;0.10;;;;;;;14.33;65.53;99986.81;7360287;19;20074;-59
2023/10/23 00:35:01;;;;;;;0.10;0.10;;;;;;;14.35;65.74;99979.72;7359892;19;21073;-59
2023/10/23 00:37:26;;;;;;;0.10;0.10;;;;;;;14.36;66.29;99970.91;7364283;19;20777;-59
2023/10/23 00:39:52;;;;;;;0.10;0.10;;;;;;;14.38;66.16;99979.56;7366523;19;20014;-59
2023/10/23 00:42:17;;;;;;;0.10;0.10;;;;;;;14.40;66.54;99981.19;7361908;19;20419;-59
2023/10/23 00:44:42;;;;;;;0.10;0.10;;;;;;;14.42;66.62;99981.09;7355721;19;20009;-59
2023/10/23 00:47:10;;;;;;;0.10;0.10;;;;;;;14.45;66.49;99975.72;7360140;19;20408;-59
2023/10/23 00:49:36;;;;;;;0.08;0.08;;;;;;;14.46;66.55;99977.41;7358824;19;20048;-59
2023/10/23 00:52:01;;;;;;;0.10;0.10;;;;;;;14.48;66.97;99978.19;7363567;19;20503;-59
2023/10/23 00:54:28;;;;;;;0.00;0.00;;;;;;;14.50;66.91;99968.47;7362587;19;20013;-59
2023/10/23 00:56:54;;;;;;;0.10;0.10;;;;;;;14.52;67.01;99971.88;7348545;19;20027;-59
2023/10/23 00:59:21;;;;;;;0.10;0.10;;;;;;;14.54;66.98;99965.59;7360230;19;20031;-58
2023/10/23 01:01:46;;;;;;;0.10;0.10;;;;;;;14.53;67.03;99956.03;7361001;19;20451;-59
2023/10/23 01:04:12;;;;;;;0.10;0.10;;;;;;;14.56;66.95;99962.91;7359296;19;20034;-59
2023/10/23 01:06:37;;;;;;;0.10;0.10;;;;;;;14.58;67.21;99961.03;7362955;19;20006;-59
2023/10/23 01:09:03;;;;;;;0.10;0.10;;;;;;;14.59;67.13;99957.47;7362098;19;20011;-60
2023/10/23 01:11:28;;;;;;;0.10;0.10;;;;;;;14.61;67.65;99963.53;7360819;19;20015;-59
2023/10/23 01:13:53;;;;;;;0.05;0.05;;;;;;;14.63;67.27;99959.03;7370898;19;20014;-60
2023/10/23 01:16:19;;;;;;;0.00;0.00;;;;;;;14.65;67.52;99957.19;7352881;19;20006;-59
2023/10/23 01:18:44;;;;;;;0.10;0.10;;;;;;;14.66;67.41;99956.25;7361027;19;20010;-59
2023/10/23 01:21:10;;;;;;;0.10;0.10;;;;;;;14.67;67.34;99954.47;7357330;19;20040;-60
2023/10/23 01:23:36;;;;;;;0.10;0.10;;;;;;;14.56;67.60;99938.41;7362710;19;20360;-59
2023/10/23 01:26:02;;;;;;;0.10;0.10;;;;;;;14.66;67.38;99953.63;7359046;19;20798;-59
2023/10/23 01:28:27;;;;;;;0.10;0.10;;;;;;;14.69;67.78;99953.44;7355307;19;20074;-60
2023/10/23 01:30:52;;;;;;;0.10;0.10;;;;;;;14.70;67.46;99949.03;7360134;19;20098;-60
2023/10/23 01:33:18;;;;;;;0.10;0.10;;;;;;;14.70;67.55;99949.03;7364092;19;20026;-59
2023/10/23 01:35:43;;;;;;;0.10;0.10;;;;;;;14.53;67.82;99915.75;7360130;19;20021;-58
2023/10/23 01:38:09;;;;;;;0.10;0.10;;;;;;;14.67;68.07;99944.81;7356835;19;20454;-59
2023/10/23 01:40:34;;;;;;;0.00;0.00;;;;;;;14.68;67.72;99946.50;7364384;19;20010;-57
2023/10/23 01:42:59;;;;;;;0.10;0.10;;;;;;;14.69;67.87;99942.94;7361719;19;20704;-59
2023/10/23 01:45:25;;;;;;;0.10;0.10;;;;;;;14.68;68.34;99943.03;7361826;19;20002;-60
2023/10/23 01:47:51;;;;;;;0.00;0.00;;;;;;;14.66;68.44;99953.63;7361406;19;20014;-60
2023/10/23 01:50:16;;;;;;;0.10;0.10;;;;;;;14.66;68.53;99947.53;7362115;19;20381;-59
2023/10/23 01:52:42;;;;;;;0.10;0.10;;;;;;;14.65;68.44;99951.94;7357021;19;20010;-58
2023/10/23 01:55:08;;;;;;;0.10;0.10;;;;;;;14.50;68.16;99926.44;7358794;19;20027;-59
2023/10/23 01:57:33;;;;;;;0.10;0.10;;;;;;;14.67;68.57;99949.22;7360115;19;20022;-59
2023/10/23 02:00:04;;;;;;;0.10;0.10;;;;;;;14.67;68.50;99947.44;7356253;19;20019;-59
2023/10/23 02:02:30;;;;;;;0.10;0.10;;;;;;;14.68;68.79;99949.13;7360301;19;20122;-59
2023/10/23 02:04:55;;;;;;;0.10;0.10;;;;;;;14.70;68.74;99947.28;7362110;19;20033;-59
2023/10/23 02:07:21;;;;;;;0.10;0.10;;;;;;;14.59;68.69;99925.94;7361881;19;20597;-59
2023/10/23 02:09:46;;;;;;;0.00;0.00;;;;;;;14.73;68.92;99944.50;7365364;19;20031;-59
2023/10/23 02:12:12;;;;;;;0.10;0.10;;;;;;;14.74;69.17;99934.81;7358134;19;20010;-59
2023/10/23 02:14:37;;;;;;;0.10;0.10;;;;;;;14.75;69.13;99937.41;7347596;19;20018;-59
2023/10/23 02:17:02;;;;;;;0.10;0.10;;;;;;;14.71;69.17;99925.34;7361963;19;21005;-59
2023/10/23 02:19:30;;;;;;;0.10;0.10;;;;;;;14.79;69.27;99931.03;7356715;19;20021;-59
2023/10/23 02:21:55;;;;;;;0.10;0.10;;;;;;;14.81;68.79;99933.59;7361170;19;20455;-59
2023/10/23 02:24:20;;;;;;;0.10;0.10;;;;;;;14.74;69.29;99914.66;7357168;19;20018;-60
2023/10/23 02:26:47;;;;;;;0.10;0.10;;;;;;;14.85;69.06;99936.88;7360608;19;20024;-59
2023/10/23 02:29:12;;;;;;;0.10;0.10;;;;;;;14.84;69.29;99930.78;7357539;19;20018;-59
2023/10/23 02:31:38;;;;;;;0.10;0.10;;;;;;;14.86;69.26;99935.97;7361207;19;20495;-58
2023/10/23 02:34:04;;;;;;;0.10;0.10;;;;;;;14.88;69.13;99932.31;7367105;19;20473;-58
2023/10/23 02:36:30;;;;;;;0.10;0.10;;;;;;;14.89;69.30;99927.91;7367635;19;20340;-59
2023/10/23 02:38:55;;;;;;;0.10;0.10;;;;;;;14.91;69.14;99931.31;7361619;19;20006;-60
2023/10/23 02:41:20;;;;;;;0.10;0.10;;;;;;;14.93;69.28;99934.72;7368669;19;20014;-59
2023/10/23 02:43:49;;;;;;;0.10;0.10;;;;;;;14.94;69.04;99933.78;7367645;19;20005;-59
2023/10/23 02:46:15;;;;;;;0.10;0.10;;;;;;;14.89;68.94;99917.41;7368246;19;20348;-59
2023/10/23 02:48:40;;;;;;;0.05;0.05;;;;;;;14.93;69.39;99916.31;7365340;19;20025;-59
2023/10/23 02:51:05;;;;;;;0.10;0.10;;;;;;;14.95;68.95;99922.31;7363072;19;20447;-59
2023/10/23 02:53:31;;;;;;;0.10;0.10;;;;;;;14.94;69.45;99926.75;7366777;19;20009;-59
2023/10/23 02:55:56;;;;;;;0.10;0.10;;;;;;;14.93;69.03;99921.56;7375617;19;20010;-59
2023/10/23 02:58:21;;;;;;;0.10;0.10;;;;;;;14.92;69.21;99923.34;7369597;19;20497;-57
2023/10/23 03:00:47;;;;;;;0.10;0.10;;;;;;;14.92;69.50;99918.09;7369611;19;20011;-59
2023/10/23 03:03:13;;;;;;;0.10;0.10;;;;;;;14.86;69.31;99901.81;7373214;19;20017;-57
2023/10/23 03:05:38;;;;;;;0.10;0.10;;;;;;;14.90;69.37;99909.44;7361130;19;20458;-59
2023/10/23 03:08:04;;;;;;;0.10;0.10;;;;;;;14.93;69.77;99914.53;7367192;19;20017;-59
2023/10/23 03:10:30;;;;;;;0.03;0.03;;;;;;;14.93;69.77;99905.78;7363247;19;20003;-59
2023/10/23 03:12:56;;;;;;;0.10;0.10;;;;;;;14.93;69.51;99913.69;7359065;19;20090;-58
2023/10/23 03:15:21;;;;;;;0.10;0.10;;;;;;;14.92;69.98;99902.31;7363185;19;20524;-58
2023/10/23 03:17:47;;;;;;;0.10;0.10;;;;;;;14.90;69.71;99900.69;7334971;19;20018;-59
2023/10/23 03:20:12;;;;;;;0.10;0.10;;;;;;;14.93;69.52;99897.91;7361630;19;20003;-59
2023/10/23 03:22:38;;;;;;;0.00;0.00;;;;;;;14.93;69.66;99897.91;7362545;19;20014;-60
2023/10/23 03:25:05;;;;;;;0.10;0.10;;;;;;;14.91;69.88;99900.63;7368705;19;20022;-60
2023/10/23 03:27:32;;;;;;;0.10;0.10;;;;;;;14.92;70.14;99899.69;7366964;19;20470;-57
2023/10/23 03:29:57;;;;;;;0.10;0.10;;;;;;;14.91;69.50;99900.63;7365332;19;20017;-59
2023/10/23 03:32:23;;;;;;;0.00;0.00;;;;;;;14.86;69.74;99892.13;7368319;19;20014;-59
2023/10/23 03:34:49;;;;;;;0.10;0.10;;;;;;;14.87;69.73;99892.97;7343978;19;20017;-59
2023/10/23 03:37:14;;;;;;;0.10;0.10;;;;;;;14.84;70.25;99888.72;7367732;19;20014;-59
2023/10/23 03:39:40;;;;;;;0.10;0.10;;;;;;;14.79;70.18;99883.72;7361796;19;20017;-59
2023/10/23 03:42:05;;;;;;;0.10;0.10;;;;;;;14.81;70.30;99888.06;7373084;19;20007;-59
2023/10/23 03:44:31;;;;;;;0.10;0.10;;;;;;;14.79;70.18;99896.00;7354833;19;20014;-59
2023/10/23 03:46:56;;;;;;;0.10;0.10;;;;;;;14.75;70.36;99889.22;7368187;19;20009;-59
2023/10/23 03:49:21;;;;;;;0.10;0.10;;;;;;;14.75;70.02;99892.72;7343743;19;20014;-60
2023/10/23 03:51:47;;;;;;;0.10;0.10;;;;;;;14.73;70.30;99896.34;7348734;19;20010;-60
2023/10/23 03:54:12;;;;;;;0.00;0.00;;;;;;;14.70;70.29;99889.47;7363720;19;20498;-59
2023/10/23 03:56:37;;;;;;;0.10;0.10;;;;;;;14.68;70.12;99888.69;7366803;19;20017;-59
2023/10/23 03:59:03;;;;;;;0.10;0.10;;;;;;;14.66;70.04;99890.56;7360907;19;20011;-59
2023/10/23 04:01:29;;;;;;;0.10;0.10;;;;;;;14.65;70.60;99883.63;7361640;19;20050;-59
2023/10/23 04:03:54;;;;;;;0.10;0.10;;;;;;;14.62;70.60;99889.03;7362568;19;20013;-59
2023/10/23 04:06:20;;;;;;;0.10;0.10;;;;;;;14.49;70.45;99872.19;7367568;19;20007;-59
2023/10/23 04:08:45;;;;;;;0.10;0.10;;;;;;;14.58;70.12;99890.09;7364219;19;20009;-59
2023/10/23 04:11:14;;;;;;;0.10;0.10;;;;;;;14.54;70.79;99880.66;7364231;19;21312;-59
2023/10/23 04:13:39;;;;;;;0.10;0.10;;;;;;;14.57;70.82;99885.78;7363709;19;20126;-59
2023/10/23 04:16:05;;;;;;;0.10;0.10;;;;;;;14.57;70.84;99888.41;7363569;19;20810;-57
2023/10/23 04:18:30;;;;;;;0.10;0.10;;;;;;;14.59;70.78;99888.31;7366014;19;20018;-59
2023/10/23 04:21:02;;;;;;;0.10;0.10;;;;;;;14.61;70.68;99889.94;7354327;19;20050;-59
2023/10/23 04:23:28;;;;;;;0.10;0.10;;;;;;;14.60;71.13;99890.88;7364398;19;20372;-59
2023/10/23 04:25:54;;;;;;;0.10;0.10;;;;;;;14.62;71.08;99883.75;7369895;19;20007;-60
2023/10/23 04:28:20;;;;;;;0.10;0.10;;;;;;;14.64;70.82;99887.16;7369376;19;20474;-59
2023/10/23 04:30:45;;;;;;;0.10;0.10;;;;;;;14.64;70.67;99879.25;7363160;19;20082;-58
2023/10/23 04:33:11;;;;;;;0.10;0.10;;;;;;;14.64;71.04;99876.63;7370925;19;20441;-59
2023/10/23 04:35:36;;;;;;;0.10;0.10;;;;;;;14.66;70.77;99877.44;7364152;19;20006;-59
2023/10/23 04:38:02;;;;;;;0.10;0.10;;;;;;;14.66;70.85;99880.06;7356457;19;20007;-59
2023/10/23 04:40:27;;;;;;;0.10;0.10;;;;;;;14.59;70.67;99859.41;7364257;19;20011;-60
2023/10/23 04:42:53;;;;;;;0.10;0.10;;;;;;;14.45;71.10;99839.13;7365433;19;20025;-59
2023/10/23 04:45:18;;;;;;;0.10;0.10;;;;;;;14.68;71.10;99878.19;7361880;19;20354;-59
2023/10/23 04:47:43;;;;;;;0.00;0.00;;;;;;;14.69;71.15;99874.63;7369261;19;20479;-59
2023/10/23 04:50:11;;;;;;;0.10;0.10;;;;;;;14.70;71.17;99875.47;7365747;19;20002;-58
2023/10/23 04:52:37;;;;;;;0.00;0.00;;;;;;;14.70;70.81;99863.19;7360989;19;20010;-59
2023/10/23 04:55:03;;;;;;;0.10;0.10;;;;;;;14.71;71.17;99853.53;7369513;19;20010;-59
2023/10/23 04:57:29;;;;;;;0.10;0.10;;;;;;;14.71;71.45;99854.38;7360466;19;20011;-59
2023/10/23 04:59:54;;;;;;;0.10;0.10;;;;;;;14.71;71.37;99861.41;7363566;19;20007;-59
2023/10/23 05:02:19;;;;;;;0.10;0.10;;;;;;;14.74;71.48;99866.50;7363926;19;20012;-59
2023/10/23 05:04:45;;;;;;;0.08;0.08;;;;;;;14.75;71.15;99866.44;7362916;19;20254;-59
2023/10/23 05:07:10;;;;;;;0.10;0.10;;;;;;;14.76;71.46;99865.50;7360568;19;20010;-59
2023/10/23 05:09:35;;;;;;;0.10;0.10;;;;;;;14.79;71.17;99869.72;7361408;19;20030;-59
2023/10/23 05:12:01;;;;;;;0.00;0.00;;;;;;;14.80;71.17;99863.56;7359635;19;20346;-59
2023/10/23 05:14:26;;;;;;;0.10;0.10;;;;;;;14.81;71.48;99856.53;7359596;19;20010;-59
2023/10/23 05:16:52;;;;;;;0.10;0.10;;;;;;;14.83;71.52;99859.91;7360141;19;20024;-59
2023/10/23 05:19:17;;;;;;;0.10;0.10;;;;;;;14.82;71.14;99863.47;7358720;19;20011;-59
2023/10/23 05:21:42;;;;;;;0.10;0.10;;;;;;;14.83;71.28;99857.28;7361130;19;20010;-59
2023/10/23 05:24:08;;;;;;;0.00;0.00;;;;;;;14.82;71.46;99855.59;7362005;19;20403;-59
2023/10/23 05:26:34;;;;;;;0.03;0.03;;;;;;;14.84;71.40;99862.44;7354867;19;20025;-59
2023/10/23 05:28:59;;;;;;;0.10;0.10;;;;;;;14.85;71.66;99863.28;7362783;19;20009;-59
2023/10/23 05:31:24;;;;;;;0.10;0.10;;;;;;;14.83;71.80;99868.63;7368037;19;20089;-59
2023/10/23 05:33:51;;;;;;;0.10;0.10;;;;;;;14.79;71.61;99853.94;7362043;19;20014;-59
2023/10/23 05:36:17;;;;;;;0.10;0.10;;;;;;;14.85;71.22;99863.28;7360522;19;20193;-59
2023/10/23 05:38:42;;;;;;;0.10;0.10;;;;;;;14.71;71.13;99835.97;7361838;19;20932;-59
2023/10/23 05:41:09;;;;;;;0.10;0.10;;;;;;;14.85;71.61;99858.03;7357664;19;20011;-59
2023/10/23 05:43:35;;;;;;;0.10;0.10;;;;;;;14.86;71.61;99857.13;7368647;19;20015;-59
2023/10/23 05:46:03;;;;;;;0.10;0.10;;;;;;;14.86;71.49;99855.34;7366093;19;20022;-59
2023/10/23 05:48:30;;;;;;;0.00;0.00;;;;;;;14.85;71.37;99858.91;7364170;19;20017;-59
2023/10/23 05:50:59;;;;;;;0.10;0.10;;;;;;;14.87;71.56;99864.06;7358232;19;20022;-60
2023/10/23 05:53:24;;;;;;;0.10;0.10;;;;;;;14.84;71.76;99869.47;7361021;19;20776;-59
2023/10/23 05:55:50;;;;;;;0.05;0.05;;;;;;;14.85;71.41;99866.78;7361696;19;20011;-59
2023/10/23 05:58:15;;;;;;;0.10;0.10;;;;;;;14.85;71.56;99858.03;7351042;19;20717;-59
2023/10/23 06:00:41;;;;;;;0.10;0.10;;;;;;;14.86;71.71;99859.75;7359402;19;21363;-59
2023/10/23 06:03:06;;;;;;;0.10;0.10;;;;;;;14.86;71.35;99857.97;7357933;19;20015;-59
2023/10/23 06:05:31;;;;;;;0.10;0.10;;;;;;;14.86;71.44;99854.50;7362001;19;20468;-59
2023/10/23 06:07:57;;;;;;;0.10;0.10;;;;;;;14.89;71.31;99849.06;7374909;19;20070;-59
2023/10/23 06:10:22;;;;;;;0.10;0.10;;;;;;;14.89;71.29;99846.41;7372654;19;20497;-59
2023/10/23 06:12:48;;;;;;;0.10;0.10;;;;;;;14.89;71.61;99839.38;7366770;19;20082;-59
2023/10/23 06:15:13;;;;;;;0.20;0.20;;;;;;;14.93;71.83;99842.69;7361561;19;20006;-59
2023/10/23 06:17:38;;;;;;;0.10;0.10;;;;;;;14.91;71.71;99834.06;7365500;19;20070;-59
2023/10/23 06:20:05;;;;;;;0.10;0.10;;;;;;;14.93;72.00;99840.06;7365435;19;20010;-59
2023/10/23 06:22:30;;;;;;;0.10;0.10;;;;;;;14.85;71.68;99815.97;7366641;19;20510;-59
2023/10/23 06:24:56;;;;;;;0.10;0.10;;;;;;;14.94;71.58;99841.75;7368453;19;20082;-59
2023/10/23 06:27:23;;;;;;;0.10;0.10;;;;;;;14.95;71.88;99838.19;7364871;19;20031;-59
2023/10/23 06:29:49;;;;;;;0.10;0.10;;;;;;;14.94;71.67;99831.25;7362580;19;20112;-59
2023/10/23 06:32:17;;;;;;;0.10;0.10;;;;;;;14.92;71.38;99839.22;7366208;19;20007;-59
2023/10/23 06:34:43;;;;;;;0.10;0.10;;;;;;;14.92;71.55;99844.47;7367459;19;20439;-59
2023/10/23 06:37:08;;;;;;;0.20;0.20;;;;;;;14.89;71.91;99847.28;7350042;19;20014;-59
2023/10/23 06:39:33;;;;;;;0.10;0.10;;;;;;;14.78;72.09;99826.81;7361833;19;20420;-59
2023/10/23 06:41:59;;;;;;;0.10;0.10;;;;;;;14.88;71.85;99850.84;7339803;19;20010;-59
2023/10/23 06:44:24;;;;;;;0.10;0.10;;;;;;;14.88;71.86;99856.09;7359896;19;20391;-59
2023/10/23 06:46:49;;;;;;;0.10;0.10;;;;;;;14.88;71.72;99868.38;7366830;19;20785;-59
2023/10/23 06:49:15;;;;;;;0.10;0.10;;;;;;;14.86;71.40;99867.63;7365253;19;20003;-59
2023/10/23 06:51:41;;;;;;;0.10;0.10;;;;;;;14.86;72.06;99862.38;7363574;19;20010;-60
2023/10/23 06:54:06;;;;;;;0.10;0.10;;;;;;;14.82;71.88;99863.47;7363773;19;20003;-59
2023/10/23 06:56:32;;;;;;;0.10;0.10;;;;;;;14.79;72.00;99865.31;7368114;19;20373;-60
2023/10/23 06:58:57;;;;;;;0.10;0.10;;;;;;;14.81;72.10;99873.13;7353182;19;20010;-59
2023/10/23 07:01:23;;;;;;;0.10;0.10;;;;;;;14.79;72.04;99875.81;7363499;19;20014;-59
2023/10/23 07:03:48;;;;;;;0.10;0.10;;;;;;;14.77;71.85;99869.81;7360688;19;21024;-59
2023/10/23 07:06:13;;;;;;;0.10;0.10;;;;;;;14.71;71.99;99862.25;7365085;19;20017;-59
2023/10/23 07:08:39;;;;;;;0.10;0.10;;;;;;;14.75;72.27;99862.94;7358765;19;20018;-60
2023/10/23 07:11:15;;;;;;;0.10;0.10;;;;;;;14.76;72.07;99860.25;7367997;19;20010;-59
2023/10/23 07:13:40;;;;;;;0.10;0.10;;;;;;;14.73;72.11;99859.53;7363555;19;20024;-58
2023/10/23 07:16:05;;;;;;;0.10;0.10;;;;;;;14.73;72.44;99870.06;7355212;19;20434;-59
2023/10/23 07:18:31;;;;;;;0.10;0.10;;;;;;;14.66;72.17;99856.41;7366592;19;20018;-59
2023/10/23 07:21:01;;;;;;;0.10;0.10;;;;;;;14.67;72.59;99860.72;7372471;19;20011;-60
2023/10/23 07:23:28;;;;;;;0.10;0.10;;;;;;;14.67;72.50;99865.13;7368373;19;20010;-59
2023/10/23 07:26:08;;;;;;;0.10;0.10;;;;;;;14.68;71.89;99867.66;7362030;19;20022;-59
2023/10/23 07:28:38;;;;;;;0.10;0.10;;;;;;;14.66;72.05;99879.22;7361262;19;20010;-59
2023/10/23 07:31:05;;;;;;;0.10;0.10;;;;;;;14.61;72.26;99876.81;7365152;19;20745;-59
2023/10/23 07:33:30;;;;;;;0.10;0.10;;;;;;;14.59;72.25;99878.66;7362440;19;20018;-59
2023/10/23 07:36:04;;;;;;;0.10;0.10;;;;;;;14.60;71.88;99869.88;7354187;19;20025;-59
2023/10/23 07:38:29;;;;;;;0.10;0.10;;;;;;;14.56;72.76;99873.59;7356969;19;20010;-58
2023/10/23 07:40:55;;;;;;;0.00;0.00;;;;;;;14.54;72.43;99873.63;7366075;19;20034;-59
2023/10/23 07:43:20;;;;;;;0.10;0.10;;;;;;;14.54;72.15;99867.53;7360708;19;20015;-59
2023/10/23 07:45:46;;;;;;;0.10;0.10;;;;;;;14.52;72.33;99866.78;7360795;19;20013;-59
2023/10/23 07:48:11;;;;;;;0.10;0.10;;;;;;;14.51;72.54;99865.94;7362912;19;20003;-59
2023/10/23 07:50:36;;;;;;;0.10;0.10;;;;;;;14.52;72.42;99867.63;7363182;19;20020;-59
2023/10/23 07:53:02;;;;;;;0.10;0.10;;;;;;;14.50;72.60;99868.66;7363773;19;20371;-59
2023/10/23 07:55:27;;;;;;;0.10;0.10;;;;;;;14.53;72.58;99874.56;7331622;19;20469;-59
2023/10/23 07:57:53;;;;;;;0.10;0.10;;;;;;;14.56;72.61;99868.31;7363256;19;20950;-59
2023/10/23 08:00:19;;;;;;;0.10;0.10;;;;;;;14.56;72.64;99872.72;7361016;19;20006;-58
2023/10/23 08:02:44;;;;;;;0.10;0.10;;;;;;;14.58;72.90;99871.72;7359008;19;20018;-59
2023/10/23 08:05:09;;;;;;;0.10;0.10;;;;;;;14.60;72.60;99875.13;7364182;19;20565;-59
2023/10/23 08:07:35;;;;;;;0.10;0.10;;;;;;;14.59;72.66;99873.41;7360293;19;20014;-59
2023/10/23 08:10:00;;;;;;;0.10;0.10;;;;;;;14.65;72.88;99873.09;7362292;19;20007;-58
2023/10/23 08:12:25;;;;;;;0.10;0.10;;;;;;;14.70;72.73;99886.84;7359699;19;20014;-59
2023/10/23 08:14:51;;;;;;;0.10;0.10;;;;;;;14.78;72.79;99875.91;7360112;19;20033;-59
2023/10/23 08:17:16;;;;;;;0.00;0.00;;;;;;;14.87;72.74;99869.31;7362621;19;20011;-59
2023/10/23 08:19:42;;;;;;;0.10;0.10;;;;;;;14.99;72.36;99871.28;7359599;19;20154;-59
2023/10/23 08:22:07;;;;;;;0.10;0.10;;;;;;;15.13;72.18;99873.16;7354663;19;20449;-59
2023/10/23 08:24:32;;;;;;;0.10;0.10;;;;;;;15.22;72.25;99881.41;7361821;19;20007;-59
2023/10/23 08:26:58;;;;;;;0.10;0.10;;;;;;;15.34;71.89;99876.41;7361097;19;20022;-59
2023/10/23 08:29:23;;;;;;;0.10;0.10;;;;;;;15.43;71.71;99871.47;7358129;19;20015;-59
2023/10/23 08:31:49;;;;;;;0.10;0.10;;;;;;;15.50;71.68;99877.22;7363905;19;20018;-59
2023/10/23 08:34:14;;;;;;;0.10;0.10;;;;;;;15.55;71.74;99875.19;7366125;19;20009;-58
2023/10/23 08:36:39;;;;;;;0.10;0.10;;;;;;;15.59;71.69;99871.47;7361449;19;20011;-59
2023/10/23 08:39:05;;;;;;;0.10;0.10;;;;;;;15.60;71.48;99867.88;7359422;19;20024;-59
2023/10/23 08:41:31;;;;;;;0.10;0.10;;;;;;;15.63;71.51;99867.75;7362076;19;20034;-59
2023/10/23 08:43:56;;;;;;;0.10;0.10;;;;;;;15.64;71.58;99864.19;7355045;19;20017;-59
2023/10/23 08:46:25;;;;;;;0.10;0.10;;;;;;;15.66;71.34;99850.94;7366290;19;20002;-59
2023/10/23 08:48:51;;;;;;;0.10;0.10;;;;;;;15.66;71.38;99851.81;7363085;19;20027;-59
2023/10/23 08:51:18;;;;;;;0.10;0.10;;;;;;;15.57;71.11;99834.72;7362227;19;20526;-59
2023/10/23 08:53:50;;;;;;;0.00;0.00;;;;;;;15.72;71.32;99851.44;7359704;19;20010;-59
2023/10/23 08:56:17;;;;;;;0.13;0.13;;;;;;;15.58;71.24;99825.03;7362491;19;20502;-59
2023/10/23 08:58:52;;;;;;;0.10;0.10;;;;;;;15.72;71.02;99848.81;7357819;19;20021;-60
2023/10/23 09:01:17;;;;;;;0.10;0.10;;;;;;;15.71;71.48;99846.25;7357557;19;20046;-59
2023/10/23 09:03:43;;;;;;;0.10;0.10;;;;;;;15.68;71.20;99839.38;7357322;19;20451;-60
2023/10/23 09:06:09;;;;;;;0.10;0.10;;;;;;;15.75;71.68;99845.97;7362090;19;20011;-59
2023/10/23 09:08:37;;;;;;;0.10;0.10;;;;;;;15.76;71.52;99852.97;7365365;19;20022;-59
2023/10/23 09:11:04;;;;;;;0.10;0.10;;;;;;;15.79;71.20;99841.41;7367454;19;20015;-58
2023/10/23 09:13:33;;;;;;;0.10;0.10;;;;;;;15.83;71.54;99846.41;7358694;19;20775;-58
2023/10/23 09:15:59;;;;;;;0.10;0.10;;;;;;;15.82;71.14;99836.81;7358644;19;20017;-59
2023/10/23 09:18:25;;;;;;;0.00;0.00;;;;;;;15.85;71.65;99834.94;7365966;19;20002;-59
2023/10/23 09:20:50;;;;;;;0.10;0.10;;;;;;;15.86;71.22;99836.63;7357444;19;20125;-60
2023/10/23 09:23:16;;;;;;;0.10;0.10;;;;;;;15.89;71.26;99831.19;7359370;19;20012;-59
2023/10/23 09:25:41;;;;;;;0.10;0.10;;;;;;;15.91;71.73;99840.66;7359992;19;20011;-59
2023/10/23 09:28:10;;;;;;;0.10;0.10;;;;;;;15.98;71.49;99830.66;7359310;19;20018;-59
2023/10/23 09:30:37;;;;;;;0.10;0.10;;;;;;;15.97;71.45;99834.22;7360089;19;20014;-59
2023/10/23 09:33:03;;;;;;;0.10;0.10;;;;;;;15.99;71.69;99825.28;7362055;19;21005;-58
2023/10/23 09:35:28;;;;;;;0.20;0.20;;;;;;;16.01;71.65;99826.03;7359656;19;20917;-60
2023/10/23 09:37:55;;;;;;;0.10;0.10;;;;;;;16.06;71.59;99820.50;7363501;19;20010;-59
2023/10/23 09:40:22;;;;;;;0.10;0.10;;;;;;;16.06;71.47;99812.59;7364005;19;20026;-60
2023/10/23 09:42:47;;;;;;;0.10;0.10;;;;;;;16.09;71.44;99822.94;7374745;19;20018;-59
2023/10/23 09:45:15;;;;;;;0.13;0.13;;;;;;;16.10;71.21;99814.09;7366561;19;20454;-59
2023/10/23 09:47:40;;;;;;;0.10;0.10;;;;;;;16.06;71.13;99807.31;7368914;19;20577;-59
2023/10/23 09:50:06;;;;;;;0.10;0.10;;;;;;;16.11;70.91;99805.25;7367165;19;20024;-59
2023/10/23 09:52:34;;;;;;;0.10;0.10;;;;;;;16.13;70.96;99808.66;7367739;19;20035;-59
2023/10/23 09:55:09;;;;;;;0.10;0.10;;;;;;;16.15;70.32;99804.16;7367214;19;20007;-59
2023/10/23 09:57:39;;;;;;;0.10;0.10;;;;;;;16.16;70.72;99799.72;7369118;19;20015;-59
2023/10/23 10:00:16;;;;;;;0.10;0.10;;;;;;;16.15;70.48;99793.59;7363818;19;20659;-59
2023/10/23 10:02:52;;;;;;;0.10;0.10;;;;;;;16.16;70.53;99787.41;7369135;19;20475;-59
2023/10/23 10:05:53;;;;;;;0.10;0.10;;;;;;;16.20;70.66;99799.44;7363398;19;20007;-59
2023/10/23 10:08:21;;;;;;;0.10;0.10;;;;;;;16.17;70.36;99789.13;7365326;19;21374;-59
2023/10/23 10:10:48;;;;;;;0.10;0.10;;;;;;;16.21;70.57;99795.88;7368414;19;20010;-59
2023/10/23 10:13:14;;;;;;;;;;;;;;;16.28;70.36;99797.22;7365962;19;20034;-59
2023/10/23 10:15:39;;;;;;;0.10;0.10;;;;;;;16.25;70.27;99792.13;7370160;19;20272;-59
2023/10/23 10:18:05;;;;;;;0.20;0.20;;;;;;;16.27;70.54;99790.25;7368206;19;19994;-59
2023/10/23 10:20:31;;;;;;;0.10;0.10;;;;;;;16.29;70.35;99788.34;7367884;19;20014;-59
2023/10/23 10:23:11;;;;;;;0.10;0.10;;;;;;;16.35;70.03;99793.25;7358352;19;20005;-59
2023/10/23 10:25:38;;;;;;;0.03;0.03;;;;;;;16.31;70.24;99791.72;7370406;19;20569;-59
2023/10/23 10:28:05;;;;;;;0.10;0.10;;;;;;;16.34;69.84;99788.09;7365873;19;20116;-59
2023/10/23 10:30:50;;;;;;;0.10;0.10;;;;;;;16.41;70.13;99778.00;7363696;19;20600;-59
2023/10/23 10:33:23;;;;;;;0.10;0.10;;;;;;;16.42;69.76;99792.88;7369379;19;20011;-59
2023/10/23 10:36:00;;;;;;;0.10;0.10;;;;;;;16.48;69.09;99789.88;7339246;19;21271;-59
2023/10/23 10:38:27;;;;;;;0.10;0.10;;;;;;;16.45;69.23;99787.41;7369795;19;20006;-59
2023/10/23 10:41:03;;;;;;;0.10;0.10;;;;;;;16.49;68.40;99789.78;7365009;19;20010;-59
2023/10/23 10:43:39;;;;;;;0.08;0.08;;;;;;;16.49;68.69;99786.28;7366207;19;20119;-59
2023/10/23 10:46:15;;;;;;;0.10;0.10;;;;;;;16.48;68.80;99787.25;7362284;19;20022;-59
2023/10/23 10:48:43;;;;;;;0.10;0.10;;;;;;;16.47;69.19;99783.72;7366352;19;20014;-59
2023/10/23 10:51:09;;;;;;;0.10;0.10;;;;;;;16.33;68.58;99768.78;7364033;19;20517;-59
2023/10/23 10:53:37;;;;;;;0.10;0.10;;;;;;;16.48;68.52;99781.97;7362317;19;20011;-59
2023/10/23 10:56:08;;;;;;;0.08;0.08;;;;;;;16.45;68.61;99792.69;7365324;19;20016;-60
2023/10/23 10:58:37;;;;;;;0.10;0.10;;;;;;;16.33;68.67;99773.22;7361236;19;20706;-59
2023/10/23 11:01:03;;;;;;;0.10;0.10;;;;;;;16.43;68.98;99784.03;7359784;19;20023;-59
2023/10/23 11:03:31;;;;;;;0.10;0.10;;;;;;;16.46;68.83;99791.75;7361536;19;20883;-60
2023/10/23 11:05:57;;;;;;;0.10;0.10;;;;;;;16.44;67.96;99791.00;7360408;19;20233;-60
2023/10/23 11:08:22;;;;;;;0.10;0.10;;;;;;;16.40;68.30;99773.69;7364765;19;20360;-59
2023/10/23 11:10:48;;;;;;;0.10;0.10;;;;;;;16.31;69.03;99765.38;7355275;19;20010;-59
2023/10/23 11:13:16;;;;;;;0.10;0.10;;;;;;;16.48;69.10;99787.25;7361160;19;20544;-59
2023/10/23 11:15:42;;;;;;;0.10;0.10;;;;;;;16.46;68.75;99778.56;7360479;19;20007;-59
2023/10/23 11:18:08;;;;;;;0.10;0.10;;;;;;;16.49;69.18;99776.59;7360328;19;20013;-59
2023/10/23 11:20:35;;;;;;;0.00;0.00;;;;;;;16.52;69.07;99763.22;7362290;19;20013;-60
2023/10/23 11:23:01;;;;;;;0.10;0.10;;;;;;;16.55;69.46;99763.03;7367244;19;20478;-59
2023/10/23 11:25:27;;;;;;;0.10;0.10;;;;;;;16.51;69.11;99755.41;7356436;19;20038;-59
2023/10/23 11:27:54;;;;;;;0.10;0.10;;;;;;;16.69;69.02;99764.81;7356873;19;20018;-59
2023/10/23 11:30:24;;;;;;;0.10;0.10;;;;;;;16.78;69.14;99766.06;7365522;19;20017;-59